sensor_id;sensor_type;location;lat;lon;timestamp;P1;durP1;ratioP1;P2;durP2;ratioP2
65960;SDS011;53272;52.078;5.420;2022-07-29T00:00:53;4.80;;;1.63;;
65960;SDS011;53272;52.078;5.420;2022-07-29T00:03:20;7.10;;;1.95;;
65960;SDS011;53272;52.078;5.420;2022-07-29T00:05:46;2.65;;;1.50;;
65960;SDS011;53272;52.078;5.420;2022-07-29T00:08:12;5.30;;;1.85;;
65960;SDS011;53272;52.078;5.420;2022-07-29T00:10:39;5.40;;;1.98;;
65960;SDS011;53272;52.078;5.420;2022-07-29T00:13:05;3.47;;;1.70;;
65960;SDS011;53272;52.078;5.420;2022-07-29T00:15:32;5.25;;;2.08;;
65960;SDS011;53272;52.078;5.420;2022-07-29T00:17:58;5.95;;;1.85;;
65960;SDS011;53272;52.078;5.420;2022-07-29T00:20:24;4.22;;;1.70;;
65960;SDS011;53272;52.078;5.420;2022-07-29T00:22:51;3.40;;;2.00;;
65960;SDS011;53272;52.078;5.420;2022-07-29T00:25:17;5.45;;;1.90;;
65960;SDS011;53272;52.078;5.420;2022-07-29T00:27:44;3.28;;;1.75;;
65960;SDS011;53272;52.078;5.420;2022-07-29T00:30:12;4.88;;;1.85;;
65960;SDS011;53272;52.078;5.420;2022-07-29T00:32:38;6.45;;;2.33;;
65960;SDS011;53272;52.078;5.420;2022-07-29T00:35:05;5.00;;;1.70;;
65960;SDS011;53272;52.078;5.420;2022-07-29T00:37:49;5.47;;;2.30;;
65960;SDS011;53272;52.078;5.420;2022-07-29T00:40:16;4.68;;;1.65;;
65960;SDS011;53272;52.078;5.420;2022-07-29T00:42:49;4.97;;;1.90;;
65960;SDS011;53272;52.078;5.420;2022-07-29T00:45:16;2.90;;;1.60;;
65960;SDS011;53272;52.078;5.420;2022-07-29T00:47:43;4.05;;;1.80;;
65960;SDS011;53272;52.078;5.420;2022-07-29T00:50:11;5.40;;;1.90;;
65960;SDS011;53272;52.078;5.420;2022-07-29T00:52:38;6.43;;;2.00;;
65960;SDS011;53272;52.078;5.420;2022-07-29T00:55:06;3.75;;;1.70;;
65960;SDS011;53272;52.078;5.420;2022-07-29T00:57:34;5.90;;;2.10;;
65960;SDS011;53272;52.078;5.420;2022-07-29T01:00:02;4.40;;;2.00;;
65960;SDS011;53272;52.078;5.420;2022-07-29T01:02:29;4.10;;;1.90;;
65960;SDS011;53272;52.078;5.420;2022-07-29T01:04:55;6.50;;;2.30;;
65960;SDS011;53272;52.078;5.420;2022-07-29T01:07:23;4.05;;;1.88;;
65960;SDS011;53272;52.078;5.420;2022-07-29T01:09:50;3.83;;;2.00;;
65960;SDS011;53272;52.078;5.420;2022-07-29T01:12:17;6.28;;;2.00;;
65960;SDS011;53272;52.078;5.420;2022-07-29T01:14:44;3.92;;;1.90;;
65960;SDS011;53272;52.078;5.420;2022-07-29T01:17:21;8.38;;;2.05;;
65960;SDS011;53272;52.078;5.420;2022-07-29T01:30:12;4.75;;;2.15;;
65960;SDS011;53272;52.078;5.420;2022-07-29T01:32:40;7.05;;;2.20;;
65960;SDS011;53272;52.078;5.420;2022-07-29T01:35:10;4.60;;;1.98;;
65960;SDS011;53272;52.078;5.420;2022-07-29T01:37:48;7.15;;;2.17;;
65960;SDS011;53272;52.078;5.420;2022-07-29T01:40:19;3.92;;;1.80;;
65960;SDS011;53272;52.078;5.420;2022-07-29T01:42:52;8.07;;;2.10;;
65960;SDS011;53272;52.078;5.420;2022-07-29T01:45:20;7.53;;;2.05;;
65960;SDS011;53272;52.078;5.420;2022-07-29T01:50:33;6.53;;;2.00;;
65960;SDS011;53272;52.078;5.420;2022-07-29T01:53:01;4.35;;;1.95;;
65960;SDS011;53272;52.078;5.420;2022-07-29T01:55:29;6.20;;;2.10;;
65960;SDS011;53272;52.078;5.420;2022-07-29T01:57:57;5.68;;;2.45;;
65960;SDS011;53272;52.078;5.420;2022-07-29T02:00:25;4.50;;;2.13;;
65960;SDS011;53272;52.078;5.420;2022-07-29T02:02:51;5.93;;;1.90;;
65960;SDS011;53272;52.078;5.420;2022-07-29T02:05:20;5.30;;;2.00;;
65960;SDS011;53272;52.078;5.420;2022-07-29T02:07:47;4.18;;;2.20;;
65960;SDS011;53272;52.078;5.420;2022-07-29T02:10:14;5.38;;;2.10;;
65960;SDS011;53272;52.078;5.420;2022-07-29T02:12:43;5.03;;;2.20;;
65960;SDS011;53272;52.078;5.420;2022-07-29T02:15:16;6.40;;;2.10;;
65960;SDS011;53272;52.078;5.420;2022-07-29T02:17:49;4.45;;;1.80;;
65960;SDS011;53272;52.078;5.420;2022-07-29T02:20:16;4.03;;;1.90;;
65960;SDS011;53272;52.078;5.420;2022-07-29T02:22:43;3.78;;;2.15;;
65960;SDS011;53272;52.078;5.420;2022-07-29T02:25:10;4.68;;;2.22;;
65960;SDS011;53272;52.078;5.420;2022-07-29T02:27:39;8.35;;;2.17;;
65960;SDS011;53272;52.078;5.420;2022-07-29T02:30:07;7.57;;;2.35;;
65960;SDS011;53272;52.078;5.420;2022-07-29T02:32:34;5.05;;;2.50;;
65960;SDS011;53272;52.078;5.420;2022-07-29T02:35:01;6.63;;;2.55;;
65960;SDS011;53272;52.078;5.420;2022-07-29T02:37:28;4.28;;;2.20;;
65960;SDS011;53272;52.078;5.420;2022-07-29T02:39:55;7.80;;;2.50;;
65960;SDS011;53272;52.078;5.420;2022-07-29T02:42:23;5.18;;;2.40;;
65960;SDS011;53272;52.078;5.420;2022-07-29T02:44:50;4.53;;;2.38;;
65960;SDS011;53272;52.078;5.420;2022-07-29T02:47:18;4.00;;;2.47;;
65960;SDS011;53272;52.078;5.420;2022-07-29T02:49:51;10.68;;;2.53;;
65960;SDS011;53272;52.078;5.420;2022-07-29T02:52:23;5.07;;;2.30;;
65960;SDS011;53272;52.078;5.420;2022-07-29T02:57:28;5.90;;;2.55;;
65960;SDS011;53272;52.078;5.420;2022-07-29T02:59:57;7.32;;;2.53;;
65960;SDS011;53272;52.078;5.420;2022-07-29T03:02:25;4.40;;;2.70;;
65960;SDS011;53272;52.078;5.420;2022-07-29T03:04:52;3.83;;;2.42;;
65960;SDS011;53272;52.078;5.420;2022-07-29T03:07:20;3.72;;;2.40;;
65960;SDS011;53272;52.078;5.420;2022-07-29T03:09:47;6.97;;;2.55;;
65960;SDS011;53272;52.078;5.420;2022-07-29T03:12:13;6.93;;;2.63;;
65960;SDS011;53272;52.078;5.420;2022-07-29T03:14:40;3.80;;;2.38;;
65960;SDS011;53272;52.078;5.420;2022-07-29T03:17:07;5.95;;;2.60;;
65960;SDS011;53272;52.078;5.420;2022-07-29T03:19:35;5.93;;;2.60;;
65960;SDS011;53272;52.078;5.420;2022-07-29T03:22:01;7.30;;;2.50;;
65960;SDS011;53272;52.078;5.420;2022-07-29T03:24:29;6.32;;;2.60;;
65960;SDS011;53272;52.078;5.420;2022-07-29T03:26:56;5.90;;;2.65;;
65960;SDS011;53272;52.078;5.420;2022-07-29T03:29:23;5.07;;;2.70;;
65960;SDS011;53272;52.078;5.420;2022-07-29T03:31:58;7.88;;;2.67;;
65960;SDS011;53272;52.078;5.420;2022-07-29T03:34:24;5.55;;;2.90;;
65960;SDS011;53272;52.078;5.420;2022-07-29T03:36:51;5.07;;;2.90;;
65960;SDS011;53272;52.078;5.420;2022-07-29T03:39:18;4.75;;;2.28;;
65960;SDS011;53272;52.078;5.420;2022-07-29T03:41:47;7.57;;;2.58;;
65960;SDS011;53272;52.078;5.420;2022-07-29T03:44:13;6.28;;;2.70;;
65960;SDS011;53272;52.078;5.420;2022-07-29T03:46:42;5.50;;;2.75;;
65960;SDS011;53272;52.078;5.420;2022-07-29T03:49:09;8.75;;;2.60;;
65960;SDS011;53272;52.078;5.420;2022-07-29T03:51:37;11.45;;;2.53;;
65960;SDS011;53272;52.078;5.420;2022-07-29T03:54:04;6.15;;;2.90;;
65960;SDS011;53272;52.078;5.420;2022-07-29T03:56:37;6.38;;;2.67;;
65960;SDS011;53272;52.078;5.420;2022-07-29T03:59:03;5.90;;;2.58;;
65960;SDS011;53272;52.078;5.420;2022-07-29T04:01:30;5.15;;;2.45;;
65960;SDS011;53272;52.078;5.420;2022-07-29T04:03:59;8.40;;;2.70;;
65960;SDS011;53272;52.078;5.420;2022-07-29T04:06:27;5.15;;;2.65;;
65960;SDS011;53272;52.078;5.420;2022-07-29T04:08:53;4.25;;;2.40;;
65960;SDS011;53272;52.078;5.420;2022-07-29T04:11:19;10.95;;;2.40;;
65960;SDS011;53272;52.078;5.420;2022-07-29T04:13:46;7.45;;;2.33;;
65960;SDS011;53272;52.078;5.420;2022-07-29T04:16:12;6.03;;;2.38;;
65960;SDS011;53272;52.078;5.420;2022-07-29T04:18:38;5.95;;;2.30;;
65960;SDS011;53272;52.078;5.420;2022-07-29T04:21:05;3.67;;;2.30;;
65960;SDS011;53272;52.078;5.420;2022-07-29T04:23:31;5.63;;;2.70;;
65960;SDS011;53272;52.078;5.420;2022-07-29T04:25:59;5.97;;;2.40;;
65960;SDS011;53272;52.078;5.420;2022-07-29T04:28:27;7.75;;;2.40;;
65960;SDS011;53272;52.078;5.420;2022-07-29T04:30:53;7.25;;;2.70;;
65960;SDS011;53272;52.078;5.420;2022-07-29T04:33:19;4.15;;;2.13;;
65960;SDS011;53272;52.078;5.420;2022-07-29T04:35:48;6.13;;;2.20;;
65960;SDS011;53272;52.078;5.420;2022-07-29T04:38:17;8.27;;;3.10;;
65960;SDS011;53272;52.078;5.420;2022-07-29T04:40:44;5.47;;;2.50;;
65960;SDS011;53272;52.078;5.420;2022-07-29T04:43:12;6.75;;;2.83;;
65960;SDS011;53272;52.078;5.420;2022-07-29T04:45:40;5.88;;;2.40;;
65960;SDS011;53272;52.078;5.420;2022-07-29T04:48:07;4.78;;;2.30;;
65960;SDS011;53272;52.078;5.420;2022-07-29T04:50:33;4.03;;;2.30;;
65960;SDS011;53272;52.078;5.420;2022-07-29T04:52:59;4.38;;;2.10;;
65960;SDS011;53272;52.078;5.420;2022-07-29T04:55:26;5.63;;;2.20;;
65960;SDS011;53272;52.078;5.420;2022-07-29T19:58:22;8.05;;;3.45;;
65960;SDS011;53272;52.078;5.420;2022-07-29T20:00:52;10.63;;;3.65;;
65960;SDS011;53272;52.078;5.420;2022-07-29T20:03:18;11.43;;;3.40;;
65960;SDS011;53272;52.078;5.420;2022-07-29T20:05:45;8.60;;;3.70;;
65960;SDS011;53272;52.078;5.420;2022-07-29T20:08:13;10.45;;;4.00;;
65960;SDS011;53272;52.078;5.420;2022-07-29T20:10:45;7.75;;;3.95;;
65960;SDS011;53272;52.078;5.420;2022-07-29T20:13:11;13.10;;;3.78;;
65960;SDS011;53272;52.078;5.420;2022-07-29T20:15:38;9.73;;;3.95;;
65960;SDS011;53272;52.078;5.420;2022-07-29T20:18:04;10.63;;;4.28;;
65960;SDS011;53272;52.078;5.420;2022-07-29T20:20:30;10.02;;;3.50;;
65960;SDS011;53272;52.078;5.420;2022-07-29T20:22:57;6.97;;;3.17;;
65960;SDS011;53272;52.078;5.420;2022-07-29T20:25:24;7.60;;;3.63;;
65960;SDS011;53272;52.078;5.420;2022-07-29T20:27:50;7.60;;;3.38;;
65960;SDS011;53272;52.078;5.420;2022-07-29T20:30:20;7.70;;;3.08;;
65960;SDS011;53272;52.078;5.420;2022-07-29T20:32:47;8.20;;;3.28;;
65960;SDS011;53272;52.078;5.420;2022-07-29T20:35:13;8.63;;;2.80;;
65960;SDS011;53272;52.078;5.420;2022-07-29T20:37:40;10.55;;;3.45;;
65960;SDS011;53272;52.078;5.420;2022-07-29T20:40:21;10.77;;;3.50;;
65960;SDS011;53272;52.078;5.420;2022-07-29T20:42:47;9.68;;;3.10;;
65960;SDS011;53272;52.078;5.420;2022-07-29T20:45:14;10.23;;;3.10;;
65960;SDS011;53272;52.078;5.420;2022-07-29T20:47:40;6.55;;;3.47;;
65960;SDS011;53272;52.078;5.420;2022-07-29T20:50:07;7.68;;;3.15;;
65960;SDS011;53272;52.078;5.420;2022-07-29T20:52:35;9.13;;;3.38;;
65960;SDS011;53272;52.078;5.420;2022-07-29T20:55:01;11.48;;;3.30;;
65960;SDS011;53272;52.078;5.420;2022-07-29T20:57:28;8.70;;;3.13;;
65960;SDS011;53272;52.078;5.420;2022-07-29T21:00:04;9.25;;;3.40;;
65960;SDS011;53272;52.078;5.420;2022-07-29T21:02:31;9.20;;;3.17;;
65960;SDS011;53272;52.078;5.420;2022-07-29T21:04:58;11.55;;;3.50;;
65960;SDS011;53272;52.078;5.420;2022-07-29T21:07:28;10.02;;;3.63;;
65960;SDS011;53272;52.078;5.420;2022-07-29T21:09:54;9.73;;;3.40;;
65960;SDS011;53272;52.078;5.420;2022-07-29T21:12:20;8.27;;;3.50;;
65960;SDS011;53272;52.078;5.420;2022-07-29T21:14:47;10.98;;;3.35;;
65960;SDS011;53272;52.078;5.420;2022-07-29T21:17:14;11.07;;;3.95;;
65960;SDS011;53272;52.078;5.420;2022-07-29T21:19:41;11.10;;;3.80;;
65960;SDS011;53272;52.078;5.420;2022-07-29T21:22:08;20.27;;;4.20;;
65960;SDS011;53272;52.078;5.420;2022-07-29T21:24:34;12.60;;;4.53;;
65960;SDS011;53272;52.078;5.420;2022-07-29T21:27:01;12.48;;;3.97;;
65960;SDS011;53272;52.078;5.420;2022-07-29T21:29:47;12.90;;;3.90;;
65960;SDS011;53272;52.078;5.420;2022-07-29T21:32:13;12.77;;;4.15;;
65960;SDS011;53272;52.078;5.420;2022-07-29T21:34:55;10.32;;;4.32;;
65960;SDS011;53272;52.078;5.420;2022-07-29T21:37:21;8.15;;;4.35;;
65960;SDS011;53272;52.078;5.420;2022-07-29T21:39:48;12.10;;;4.50;;
65960;SDS011;53272;52.078;5.420;2022-07-29T21:42:14;11.85;;;4.53;;
65960;SDS011;53272;52.078;5.420;2022-07-29T21:44:40;15.43;;;4.38;;
65960;SDS011;53272;52.078;5.420;2022-07-29T21:47:07;14.30;;;4.72;;
65960;SDS011;53272;52.078;5.420;2022-07-29T21:49:37;11.70;;;4.47;;
65960;SDS011;53272;52.078;5.420;2022-07-29T21:52:04;16.20;;;4.78;;
65960;SDS011;53272;52.078;5.420;2022-07-29T21:54:33;13.60;;;4.65;;
65960;SDS011;53272;52.078;5.420;2022-07-29T21:56:59;13.02;;;4.93;;
65960;SDS011;53272;52.078;5.420;2022-07-29T21:59:26;14.55;;;4.78;;
65960;SDS011;53272;52.078;5.420;2022-07-29T22:01:52;14.35;;;4.60;;
65960;SDS011;53272;52.078;5.420;2022-07-29T22:04:18;16.88;;;5.30;;
65960;SDS011;53272;52.078;5.420;2022-07-29T22:06:45;13.43;;;4.43;;
65960;SDS011;53272;52.078;5.420;2022-07-29T22:09:12;14.38;;;4.95;;
65960;SDS011;53272;52.078;5.420;2022-07-29T22:11:38;12.38;;;4.93;;
65960;SDS011;53272;52.078;5.420;2022-07-29T22:14:04;7.95;;;4.55;;
65960;SDS011;53272;52.078;5.420;2022-07-29T22:16:32;12.45;;;5.13;;
65960;SDS011;53272;52.078;5.420;2022-07-29T22:18:58;11.13;;;4.72;;
65960;SDS011;53272;52.078;5.420;2022-07-29T22:21:25;9.73;;;4.15;;
65960;SDS011;53272;52.078;5.420;2022-07-29T22:23:51;14.85;;;4.70;;
65960;SDS011;53272;52.078;5.420;2022-07-29T22:26:18;9.55;;;4.10;;
65960;SDS011;53272;52.078;5.420;2022-07-29T22:28:44;11.05;;;4.63;;
65960;SDS011;53272;52.078;5.420;2022-07-29T22:31:11;17.30;;;4.53;;
65960;SDS011;53272;52.078;5.420;2022-07-29T22:33:37;13.70;;;4.68;;
65960;SDS011;53272;52.078;5.420;2022-07-29T22:36:04;9.82;;;4.43;;
65960;SDS011;53272;52.078;5.420;2022-07-29T22:38:30;24.58;;;5.57;;
65960;SDS011;53272;52.078;5.420;2022-07-29T22:40:56;20.85;;;7.40;;
65960;SDS011;53272;52.078;5.420;2022-07-29T22:43:26;16.17;;;7.53;;
65960;SDS011;53272;52.078;5.420;2022-07-29T22:45:52;14.20;;;7.28;;
65960;SDS011;53272;52.078;5.420;2022-07-29T22:48:19;13.15;;;6.22;;
65960;SDS011;53272;52.078;5.420;2022-07-29T22:50:45;11.95;;;5.38;;
65960;SDS011;53272;52.078;5.420;2022-07-29T22:53:12;16.40;;;5.38;;
65960;SDS011;53272;52.078;5.420;2022-07-29T22:55:38;13.90;;;5.35;;
65960;SDS011;53272;52.078;5.420;2022-07-29T22:58:04;23.13;;;5.10;;
65960;SDS011;53272;52.078;5.420;2022-07-29T23:00:31;10.50;;;4.45;;
65960;SDS011;53272;52.078;5.420;2022-07-29T23:02:57;14.15;;;4.60;;
65960;SDS011;53272;52.078;5.420;2022-07-29T23:05:24;10.68;;;4.40;;
65960;SDS011;53272;52.078;5.420;2022-07-29T23:07:51;13.23;;;4.68;;
65960;SDS011;53272;52.078;5.420;2022-07-29T23:10:17;10.65;;;4.25;;
65960;SDS011;53272;52.078;5.420;2022-07-29T23:12:43;8.02;;;4.35;;
65960;SDS011;53272;52.078;5.420;2022-07-29T23:15:10;11.35;;;4.43;;
65960;SDS011;53272;52.078;5.420;2022-07-29T23:17:36;10.77;;;4.28;;
65960;SDS011;53272;52.078;5.420;2022-07-29T23:20:04;10.95;;;4.47;;
65960;SDS011;53272;52.078;5.420;2022-07-29T23:22:30;12.48;;;4.30;;
65960;SDS011;53272;52.078;5.420;2022-07-29T23:24:57;12.13;;;4.50;;
65960;SDS011;53272;52.078;5.420;2022-07-29T23:27:23;9.63;;;4.38;;
65960;SDS011;53272;52.078;5.420;2022-07-29T23:29:49;9.07;;;4.10;;
65960;SDS011;53272;52.078;5.420;2022-07-29T23:32:16;11.30;;;4.90;;
65960;SDS011;53272;52.078;5.420;2022-07-29T23:34:42;11.02;;;4.72;;
65960;SDS011;53272;52.078;5.420;2022-07-29T23:37:09;13.23;;;4.35;;
65960;SDS011;53272;52.078;5.420;2022-07-29T23:39:35;11.30;;;4.68;;
65960;SDS011;53272;52.078;5.420;2022-07-29T23:42:02;12.70;;;4.47;;
65960;SDS011;53272;52.078;5.420;2022-07-29T23:44:28;9.85;;;4.85;;
65960;SDS011;53272;52.078;5.420;2022-07-29T23:46:55;11.27;;;4.60;;
65960;SDS011;53272;52.078;5.420;2022-07-29T23:49:21;12.00;;;5.10;;
65960;SDS011;53272;52.078;5.420;2022-07-29T23:51:48;12.10;;;4.90;;
65960;SDS011;53272;52.078;5.420;2022-07-29T23:54:14;10.85;;;4.43;;
65960;SDS011;53272;52.078;5.420;2022-07-29T23:56:40;13.05;;;4.90;;
65960;SDS011;53272;52.078;5.420;2022-07-29T23:59:07;11.25;;;4.60;;
